Time;durP1;ratioP1;P1;durP2;ratioP2;P2;SDS_P1;SDS_P2;PMS_P1;PMS_P2;Temp;Humidity;BMP_temperature;BMP_pressure;BME280_temperature;BME280_humidity;BME280_pressure;Samples;Min_cycle;Max_cycle;Signal;HPM_P1;HPM_P2
2022/11/18 00:01:05;;;;;;;;;;;;;;;-7.58;81.42;98444.69;4994562;28;19934;-83
2022/11/18 00:03:32;;;;;;;;;;;;;;;-7.56;81.44;98456.69;5013220;28;20024;-85
2022/11/18 00:05:59;;;;;;;;;;;;;;;-7.55;81.58;98453.09;5019802;28;19933;-81
2022/11/18 00:08:26;;;;;;;;;;;;;;;-7.53;81.66;98455.56;5024717;28;20314;-83
2022/11/18 00:10:53;;;;;;;;;;;;;;;-7.49;81.71;98455.16;5032362;28;19966;-86
2022/11/18 00:16:06;;;;;;;;;;;;;;;-7.54;81.36;98443.44;5036420;28;19972;-84
2022/11/18 00:18:34;;;;;;;;;;;;;;;-7.58;81.41;98450.75;5049075;28;19960;-82
2022/11/18 00:21:01;;;;;;;;;;;;;;;-7.56;81.63;98443.59;5029779;28;19955;-81
2022/11/18 00:23:29;;;;;;;;;;;;;;;-7.66;81.44;98429.69;5011113;28;19928;-82
2022/11/18 00:26:00;;;;;;;;;;;;;;;-7.61;81.18;98437.94;5023077;28;19969;-81
2022/11/18 00:28:27;;;;;;;;;;;;;;;-7.66;81.19;98438.38;5025811;28;20025;-83
2022/11/18 00:30:59;;;;;;;;;;;;;;;-7.65;81.30;98439.19;5027904;28;19929;-82
2022/11/18 00:33:26;;;;;;;;;;;;;;;-7.62;81.53;98441.53;5020716;28;19992;-82
2022/11/18 00:35:53;;;;;;;;;;;;;;;-7.57;81.44;98439.31;4996045;28;19929;-80
2022/11/18 00:38:20;;;;;;;;;;;;;;;-7.58;81.23;98439.44;5014247;28;20395;-82
2022/11/18 00:40:47;;;;;;;;;;;;;;;-7.59;81.06;98435.19;5021306;28;19933;-82
2022/11/18 00:43:13;;;;;;;;;;;;;;;-7.63;80.98;98434.63;5021083;28;20413;-84
2022/11/18 00:45:41;;;;;;;;;;;;;;;-7.63;80.86;98424.97;5023189;28;19929;-84
2022/11/18 00:48:08;;;;;;;;;;;;;;;-7.64;80.95;98425.94;5001057;28;19952;-83
2022/11/18 00:50:35;;;;;;;;;;;;;;;-7.63;80.89;98426.78;5035656;28;19998;-84
2022/11/18 00:53:02;;;;;;;;;;;;;;;-7.63;80.75;98424.16;5017334;28;19929;-84
2022/11/18 00:55:29;;;;;;;;;;;;;;;-7.62;80.77;98420.59;5035195;28;19936;-84
2022/11/18 00:57:56;;;;;;;;;;;;;;;-7.61;80.59;98419.59;5034829;28;19936;-84
2022/11/18 01:00:23;;;;;;;;;;;;;;;-7.61;80.49;98416.16;5035121;28;20024;-84
2022/11/18 01:02:49;;;;;;;;;;;;;;;-7.64;80.60;98415.47;5037615;28;19933;-85
2022/11/18 01:05:16;;;;;;;;;;;;;;;-7.66;80.54;98413.97;5020164;28;19929;-85
2022/11/18 01:07:43;;;;;;;;;;;;;;;-7.65;80.54;98416.41;5035311;28;19929;-84
2022/11/18 01:10:10;;;;;;;;;;;;;;;-7.66;80.64;98406.91;5016695;28;20459;-84
2022/11/18 01:15:23;;;;;;;;;;;;;;;-7.61;80.59;98409.13;5020145;28;19929;-83
2022/11/18 01:17:50;;;;;;;;;;;;;;;-7.64;80.39;98404.16;5034993;28;19938;-84
2022/11/18 01:20:18;;;;;;;;;;;;;;;-7.66;80.36;98401.69;5017250;28;19933;-83
2022/11/18 01:22:45;;;;;;;;;;;;;;;-7.66;80.13;98398.25;5033334;28;20315;-84
2022/11/18 01:25:12;;;;;;;;;;;;;;;-7.64;80.23;98401.53;5016313;28;19964;-84
2022/11/18 01:27:39;;;;;;;;;;;;;;;-7.62;80.27;98391.75;5000423;28;19933;-84
2022/11/18 01:30:06;;;;;;;;;;;;;;;-7.65;80.06;98394.63;5034201;28;20031;-84
2022/11/18 01:32:33;;;;;;;;;;;;;;;-7.66;79.92;98401.69;5023981;28;19933;-83
2022/11/18 01:35:00;;;;;;;;;;;;;;;-7.64;80.09;98396.31;5021689;28;20051;-84
2022/11/18 01:37:28;;;;;;;;;;;;;;;-7.61;80.00;98401.25;5014689;28;19929;-84
2022/11/18 01:39:55;;;;;;;;;;;;;;;-7.67;79.93;98388.72;5032452;28;20023;-84
2022/11/18 01:42:22;;;;;;;;;;;;;;;-7.64;79.81;98393.69;5016291;28;19971;-84
2022/11/18 01:44:59;;;;;;;;;;;;;;;-7.67;80.04;98386.94;5034255;28;20428;-84
2022/11/18 01:47:37;;;;;;;;;;;;;;;-7.66;80.19;98385.97;4997252;28;19930;-84
2022/11/18 01:50:05;;;;;;;;;;;;;;;-7.65;79.66;98389.41;5014254;28;20037;-84
2022/11/18 01:52:32;;;;;;;;;;;;;;;-7.66;79.82;98393.81;5007097;28;19999;-83
2022/11/18 01:55:01;;;;;;;;;;;;;;;-7.69;79.77;98386.25;5033565;28;20149;-84
2022/11/18 01:57:31;;;;;;;;;;;;;;;-7.71;79.55;98390.81;5034304;28;19929;-85
2022/11/18 01:59:58;;;;;;;;;;;;;;;-7.68;79.66;98394.94;5016795;28;20316;-84
2022/11/18 02:02:25;;;;;;;;;;;;;;;-7.68;79.87;98395.75;5012154;28;19935;-84
2022/11/18 02:04:52;;;;;;;;;;;;;;;-7.69;79.99;98396.72;5012699;28;19929;-83
2022/11/18 02:07:19;;;;;;;;;;;;;;;-7.70;79.94;98389.81;4996279;28;19936;-84
2022/11/18 02:09:46;;;;;;;;;;;;;;;-7.67;79.86;98391.31;5012434;28;19929;-84
2022/11/18 02:12:13;;;;;;;;;;;;;;;-7.65;79.91;98392.00;4995928;28;19930;-83
2022/11/18 02:14:41;;;;;;;;;;;;;;;-7.62;79.80;98389.13;5016277;28;19933;-83
2022/11/18 02:17:08;;;;;;;;;;;;;;;-7.65;79.71;98384.16;5013098;28;19929;-83
2022/11/18 02:19:35;;;;;;;;;;;;;;;-7.65;79.49;98386.78;5013464;28;19930;-83
2022/11/18 02:22:18;;;;;;;;;;;;;;;-7.68;79.80;98384.44;4996015;28;19930;-84
2022/11/18 02:24:48;;;;;;;;;;;;;;;-7.65;79.65;98389.41;5012165;28;19930;-83
2022/11/18 02:27:24;;;;;;;;;;;;;;;-7.64;79.92;98380.59;5011532;28;19936;-83
2022/11/18 02:29:53;;;;;;;;;;;;;;;-7.64;79.76;98381.41;4992107;28;19940;-84
2022/11/18 02:32:25;;;;;;;;;;;;;;;-7.64;79.84;98381.41;4992068;28;20308;-84
2022/11/18 02:34:51;;;;;;;;;;;;;;;-7.64;79.68;98376.16;4993579;28;20300;-83
2022/11/18 02:37:24;;;;;;;;;;;;;;;-7.67;79.83;98372.97;5008312;28;20282;-84
2022/11/18 02:39:56;;;;;;;;;;;;;;;-7.68;79.81;98373.97;4994528;28;19933;-83
2022/11/18 02:42:24;;;;;;;;;;;;;;;-7.66;79.84;98377.28;5012823;28;20029;-84
2022/11/18 02:44:52;;;;;;;;;;;;;;;-7.68;79.75;98371.34;4996038;28;20040;-82
2022/11/18 02:47:18;;;;;;;;;;;;;;;-7.64;79.99;98362.25;4995241;28;19936;-83
2022/11/18 02:49:46;;;;;;;;;;;;;;;-7.64;79.81;98370.09;4991831;28;20379;-84
2022/11/18 02:52:14;;;;;;;;;;;;;;;-7.63;79.85;98374.34;5009392;28;19968;-81
2022/11/18 02:54:40;;;;;;;;;;;;;;;-7.65;79.90;98377.13;4976567;28;19938;-81
2022/11/18 02:57:08;;;;;;;;;;;;;;;-7.64;79.93;98376.16;4979130;28;20281;-83
2022/11/18 02:59:34;;;;;;;;;;;;;;;-7.64;79.95;98368.28;5006798;28;20404;-82
2022/11/18 03:02:01;;;;;;;;;;;;;;;-7.63;79.92;98367.31;5016410;28;19936;-81
2022/11/18 03:04:28;;;;;;;;;;;;;;;-7.62;80.06;98357.69;5024619;28;20392;-82
2022/11/18 03:07:02;;;;;;;;;;;;;;;-7.61;79.99;98356.69;4987462;28;19929;-82
2022/11/18 03:09:31;;;;;;;;;;;;;;;-7.67;79.96;98360.72;5001764;28;19929;-81
2022/11/18 03:12:16;;;;;;;;;;;;;;;-7.64;80.27;98349.13;4998047;28;19936;-83
2022/11/18 03:15:03;;;;;;;;;;;;;;;-7.62;79.96;98355.06;5012580;28;19937;-81
2022/11/18 03:17:49;;;;;;;;;;;;;;;-7.64;80.31;98357.00;5024754;28;19933;-84
2022/11/18 03:20:32;;;;;;;;;;;;;;;-7.60;80.14;98354.91;5012913;28;19930;-83
2022/11/18 03:23:02;;;;;;;;;;;;;;;-7.60;80.18;98355.72;4995021;28;19953;-84
2022/11/18 03:25:41;;;;;;;;;;;;;;;-7.60;80.24;98366.19;5020763;28;20067;-84
2022/11/18 03:28:13;;;;;;;;;;;;;;;-7.60;80.16;98366.19;5014134;28;20454;-83
2022/11/18 03:30:43;;;;;;;;;;;;;;;-7.58;79.92;98366.88;5014336;28;19940;-84
2022/11/18 03:33:15;;;;;;;;;;;;;;;-7.55;80.11;98363.97;4997592;28;19933;-84
2022/11/18 03:35:43;;;;;;;;;;;;;;;-7.53;80.18;98362.03;5014102;28;20494;-83
2022/11/18 03:38:12;;;;;;;;;;;;;;;-7.49;80.08;98355.53;5013853;28;19960;-84
2022/11/18 03:40:40;;;;;;;;;;;;;;;-7.47;80.15;98352.75;5015006;28;19933;-83
2022/11/18 03:43:14;;;;;;;;;;;;;;;-7.47;79.94;98351.00;5015020;28;19929;-83
2022/11/18 03:46:01;;;;;;;;;;;;;;;-7.54;79.72;98347.28;5014882;28;20430;-83
2022/11/18 03:48:29;;;;;;;;;;;;;;;-7.54;79.79;98352.53;5042636;28;19929;-84
2022/11/18 03:51:00;;;;;;;;;;;;;;;-7.54;80.22;98349.09;5030039;28;19964;-83
2022/11/18 03:53:28;;;;;;;;;;;;;;;-7.54;80.02;98347.28;5002474;28;19929;-84
2022/11/18 03:56:01;;;;;;;;;;;;;;;-7.57;79.91;98349.38;4999742;28;19968;-83
2022/11/18 03:58:39;;;;;;;;;;;;;;;-7.57;79.92;98342.34;5051756;28;19936;-83
2022/11/18 04:01:17;;;;;;;;;;;;;;;-7.56;79.98;98341.38;5035789;28;19928;-84
2022/11/18 04:03:44;;;;;;;;;;;;;;;-7.57;79.89;98338.88;5015898;28;19961;-84
2022/11/18 04:06:15;;;;;;;;;;;;;;;-7.58;79.90;98348.53;5017247;28;19941;-83
2022/11/18 04:08:43;;;;;;;;;;;;;;;-7.56;80.16;98349.22;5001658;28;19937;-83
2022/11/18 04:14:04;;;;;;;;;;;;;;;-7.53;80.20;98335.81;5006747;28;19969;-85
2022/11/18 04:16:37;;;;;;;;;;;;;;;-7.50;80.08;98340.78;4998735;28;19988;-84
2022/11/18 04:19:04;;;;;;;;;;;;;;;-7.49;80.23;98337.19;5014825;28;20000;-86
2022/11/18 04:21:32;;;;;;;;;;;;;;;-7.51;80.14;98333.88;5004706;28;20075;-89
2022/11/18 04:23:59;;;;;;;;;;;;;;;-7.52;80.18;98336.66;5018906;28;20343;-84
2022/11/18 04:26:26;;;;;;;;;;;;;;;-7.49;79.94;98342.44;4996328;28;19979;-86
2022/11/18 04:28:53;;;;;;;;;;;;;;;-7.50;80.25;98343.38;5005434;28;20033;-85
2022/11/18 04:31:20;;;;;;;;;;;;;;;-7.47;80.08;98337.03;5018420;28;20093;-83
2022/11/18 04:33:47;;;;;;;;;;;;;;;-7.45;80.03;98335.09;5015681;28;19930;-83
2022/11/18 04:36:14;;;;;;;;;;;;;;;-7.46;80.23;98341.31;5007175;28;20365;-83
2022/11/18 04:38:40;;;;;;;;;;;;;;;-7.44;80.29;98334.97;5017408;28;20001;-85
2022/11/18 04:41:07;;;;;;;;;;;;;;;-7.44;80.30;98336.75;5002919;28;19929;-84
2022/11/18 04:43:37;;;;;;;;;;;;;;;-7.42;80.15;98326.94;4997152;28;19995;-85
2022/11/18 04:46:04;;;;;;;;;;;;;;;-7.43;80.13;98328.72;5010385;28;19948;-82
2022/11/18 04:48:30;;;;;;;;;;;;;;;-7.42;80.11;98333.03;5017142;28;20315;-83
2022/11/18 04:51:01;;;;;;;;;;;;;;;-7.41;80.05;98328.59;5017075;28;19972;-84
2022/11/18 04:53:28;;;;;;;;;;;;;;;-7.46;79.96;98330.84;5017599;28;20360;-82
2022/11/18 04:55:55;;;;;;;;;;;;;;;-7.49;80.11;98329.34;5009777;28;19940;-81
2022/11/18 04:58:22;;;;;;;;;;;;;;;-7.46;80.11;98341.31;5004915;28;20379;-84
2022/11/18 05:00:49;;;;;;;;;;;;;;;-7.42;80.24;98337.41;5005268;28;20099;-85
2022/11/18 05:03:26;;;;;;;;;;;;;;;;;;;;;
2022/11/18 05:06:01;;;;;;;;;;;;;;;-7.42;80.27;98340.88;5019258;28;20341;-84
2022/11/18 05:08:36;;;;;;;;;;;;;;;-7.39;80.39;98341.53;5013262;28;19932;-85
2022/11/18 05:13:51;;;;;;;;;;;;;;;-7.37;80.34;98340.41;5037670;28;20363;-85
2022/11/18 05:16:18;;;;;;;;;;;;;;;-7.33;80.09;98335.72;5020678;28;19933;-87
2022/11/18 05:18:46;;;;;;;;;;;;;;;-7.34;80.41;98339.31;5005078;28;19992;-86
2022/11/18 05:21:22;;;;;;;;;;;;;;;-7.32;80.21;98337.38;5021775;28;19929;-86
2022/11/18 05:24:23;;;;;;;;;;;;;;;-7.29;80.35;98339.69;4975597;28;19933;-86
2022/11/18 05:26:55;;;;;;;;;;;;;;;-7.28;80.29;98336.09;5023802;28;19929;-85
2022/11/18 05:29:23;;;;;;;;;;;;;;;-7.29;80.06;98337.06;5019664;28;19929;-86
2022/11/18 05:31:50;;;;;;;;;;;;;;;-7.35;79.97;98348.97;5001438;28;19929;-83
2022/11/18 05:34:17;;;;;;;;;;;;;;;-7.35;80.18;98340.28;5034748;28;19936;-85
2022/11/18 05:36:44;;;;;;;;;;;;;;;-7.31;80.11;98350.34;5016622;28;19933;-86
2022/11/18 05:39:11;;;;;;;;;;;;;;;-7.31;80.07;98345.09;5033851;28;19933;-86
2022/11/18 05:44:24;;;;;;;;;;;;;;;-7.33;79.84;98347.03;5034532;28;20351;-85
2022/11/18 05:46:51;;;;;;;;;;;;;;;-7.30;80.17;98345.91;5017571;28;19936;-83
2022/11/18 05:49:17;;;;;;;;;;;;;;;-7.30;79.98;98351.16;5034356;28;19935;-85
2022/11/18 05:51:50;;;;;;;;;;;;;;;-7.26;80.15;98349.91;5034961;28;19976;-86
2022/11/18 05:54:18;;;;;;;;;;;;;;;-7.23;80.00;98357.47;5034455;28;20035;-85
2022/11/18 05:56:45;;;;;;;;;;;;;;;-7.25;79.82;98348.91;5034531;28;20462;-84
2022/11/18 05:59:12;;;;;;;;;;;;;;;-7.24;79.73;98350.56;5017097;28;19933;-85
2022/11/18 06:01:39;;;;;;;;;;;;;;;-7.19;79.57;98348.31;5034448;28;19929;-86
2022/11/18 06:04:26;;;;;;;;;;;;;;;-7.21;79.83;98347.66;5033732;28;20296;-85
2022/11/18 06:06:54;;;;;;;;;;;;;;;-7.23;79.61;98352.22;5007916;28;19935;-84
2022/11/18 06:09:22;;;;;;;;;;;;;;;-7.21;79.62;98347.66;5022860;28;20039;-84
2022/11/18 06:11:50;;;;;;;;;;;;;;;-7.17;79.76;98341.13;5033215;28;19979;-85
2022/11/18 06:14:19;;;;;;;;;;;;;;;-7.17;79.71;98349.00;5016501;28;19936;-85
2022/11/18 06:16:49;;;;;;;;;;;;;;;-7.20;79.60;98346.69;5034574;28;19935;-85
2022/11/18 06:19:16;;;;;;;;;;;;;;;-7.20;79.51;98346.69;5034291;28;20068;-85
2022/11/18 06:21:48;;;;;;;;;;;;;;;-7.17;79.34;98343.75;5034103;28;20306;-85
2022/11/18 06:24:15;;;;;;;;;;;;;;;-7.15;79.73;98348.88;5000460;28;19929;-84
2022/11/18 06:26:42;;;;;;;;;;;;;;;-7.14;79.53;98355.75;5033999;28;19933;-85
2022/11/18 06:29:10;;;;;;;;;;;;;;;-7.12;79.53;98354.63;5034072;28;19929;-85
2022/11/18 06:31:37;;;;;;;;;;;;;;;-7.06;79.31;98353.22;5017007;28;19936;-85
2022/11/18 06:34:04;;;;;;;;;;;;;;;-7.04;79.47;98359.97;5034853;28;19936;-85
2022/11/18 06:36:31;;;;;;;;;;;;;;;-7.06;79.46;98354.03;5016029;28;19933;-84
2022/11/18 06:39:06;;;;;;;;;;;;;;;-7.04;79.54;98352.09;5039615;28;19929;-85
2022/11/18 06:41:33;;;;;;;;;;;;;;;-7.02;79.57;98347.50;5026120;28;20340;-84
2022/11/18 06:44:16;;;;;;;;;;;;;;;-7.01;79.33;98349.19;5042222;28;20023;-85
2022/11/18 06:46:56;;;;;;;;;;;;;;;-6.97;79.34;98347.88;5041782;28;20075;-86
2022/11/18 06:49:23;;;;;;;;;;;;;;;-6.92;79.26;98346.63;5031653;28;19959;-85
2022/11/18 06:51:50;;;;;;;;;;;;;;;-6.99;79.26;98357.72;5016049;28;19976;-88
2022/11/18 06:54:17;;;;;;;;;;;;;;;-6.98;79.15;98345.44;4983115;28;19929;-87
2022/11/18 06:56:44;;;;;;;;;;;;;;;-7.01;78.94;98343.94;5007253;28;19991;-84
2022/11/18 06:59:12;;;;;;;;;;;;;;;-7.00;79.12;98342.13;5033106;28;19933;-84
2022/11/18 07:01:39;;;;;;;;;;;;;;;-6.93;78.85;98351.06;5009202;28;19933;-86
2022/11/18 07:04:06;;;;;;;;;;;;;;;-6.88;78.81;98350.63;4655868;28;10000184;-84
2022/11/18 07:06:47;;;;;;;;;;;;;;;-6.93;78.70;98347.63;4675620;28;10000916;-82
2022/11/18 07:09:14;;;;;;;;;;;;;;;-6.90;78.98;98357.81;4994948;28;20293;-84
2022/11/18 07:11:46;;;;;;;;;;;;;;;-6.89;78.91;98343.69;4995596;28;20324;-88
2022/11/18 07:14:14;;;;;;;;;;;;;;;-6.88;78.72;98346.19;5000115;28;19936;-81
2022/11/18 07:16:41;;;;;;;;;;;;;;;-6.81;78.63;98349.00;5015403;28;19929;-85
2022/11/18 07:19:09;;;;;;;;;;;;;;;-6.80;78.59;98342.81;5030859;28;19951;-85
2022/11/18 07:21:36;;;;;;;;;;;;;;;-6.79;78.70;98349.69;5021480;28;19968;-85
2022/11/18 07:24:04;;;;;;;;;;;;;;;-6.74;78.55;98350.06;4999387;28;19929;-86
2022/11/18 07:26:31;;;;;;;;;;;;;;;-6.73;78.29;98359.59;5033252;28;19990;-85
2022/11/18 07:28:59;;;;;;;;;;;;;;;-6.71;78.11;98357.63;5032358;28;19975;-90
2022/11/18 07:31:28;;;;;;;;;;;;;;;-6.67;78.23;98353.75;5032936;28;20362;-82
2022/11/18 07:33:55;;;;;;;;;;;;;;;-6.60;77.82;98360.03;5026119;28;20319;-85
2022/11/18 07:36:24;;;;;;;;;;;;;;;-6.60;77.80;98360.03;5022100;28;20281;-85
2022/11/18 07:38:57;;;;;;;;;;;;;;;-6.58;77.71;98355.47;5032057;28;19936;-86
2022/11/18 07:41:25;;;;;;;;;;;;;;;-6.48;77.79;98359.78;5017254;28;19929;-85
2022/11/18 07:43:59;;;;;;;;;;;;;;;-6.42;77.53;98360.03;5014638;28;19980;-86
2022/11/18 07:46:28;;;;;;;;;;;;;;;-6.35;77.44;98355.00;5015307;28;19929;-86
2022/11/18 07:48:56;;;;;;;;;;;;;;;-6.40;77.02;98350.19;5013649;28;19930;-85
2022/11/18 07:51:24;;;;;;;;;;;;;;;-6.40;77.23;98354.63;4994553;28;19935;-86
2022/11/18 07:53:53;;;;;;;;;;;;;;;-6.35;77.08;98357.63;4981779;28;19933;-85
2022/11/18 07:56:23;;;;;;;;;;;;;;;-6.34;77.25;98367.13;5015007;28;19932;-86
2022/11/18 07:58:54;;;;;;;;;;;;;;;-6.32;76.93;98366.00;5019430;28;19929;-85
2022/11/18 08:01:23;;;;;;;;;;;;;;;-6.32;76.86;98368.63;5015441;28;19936;-86
2022/11/18 08:03:50;;;;;;;;;;;;;;;-6.33;76.63;98372.25;5028634;28;19952;-84
2022/11/18 08:06:17;;;;;;;;;;;;;;;-6.33;76.73;98363.53;5038492;28;19933;-86
2022/11/18 08:08:44;;;;;;;;;;;;;;;-6.28;76.68;98374.38;5048136;28;19929;-84
2022/11/18 08:11:15;;;;;;;;;;;;;;;-6.29;76.87;98364.88;5042789;28;19929;-83
2022/11/18 08:13:48;;;;;;;;;;;;;;;-6.28;77.16;98378.81;5027665;28;19929;-85
2022/11/18 08:16:16;;;;;;;;;;;;;;;-6.30;76.73;98371.13;5028398;28;19959;-85
2022/11/18 08:18:43;;;;;;;;;;;;;;;-6.35;77.04;98374.19;5012356;28;20291;-85
2022/11/18 08:21:13;;;;;;;;;;;;;;;-6.41;77.10;98373.97;5023693;28;19937;-86
2022/11/18 08:23:40;;;;;;;;;;;;;;;-6.35;77.29;98368.13;5035289;28;19929;-86
2022/11/18 08:26:14;;;;;;;;;;;;;;;-6.33;77.22;98371.41;5031752;28;19975;-85
2022/11/18 08:28:42;;;;;;;;;;;;;;;-6.30;77.53;98372.91;5036108;28;19929;-86
2022/11/18 08:31:10;;;;;;;;;;;;;;;-6.26;77.52;98376.88;5005335;28;19952;-91
2022/11/18 08:33:37;;;;;;;;;;;;;;;-6.27;77.39;98372.63;5020208;28;19940;-90
2022/11/18 08:36:07;;;;;;;;;;;;;;;-6.21;77.49;98370.19;5041189;28;19933;-89
2022/11/18 08:38:34;;;;;;;;;;;;;;;-6.13;77.22;98370.25;5036956;28;20451;-85
2022/11/18 08:41:02;;;;;;;;;;;;;;;-6.06;76.91;98367.00;5014822;28;20349;-84
2022/11/18 08:43:29;;;;;;;;;;;;;;;-6.06;77.04;98372.25;5014395;28;19997;-87
2022/11/18 08:45:56;;;;;;;;;;;;;;;-5.95;76.87;98379.88;5033324;28;19929;-85
2022/11/18 08:48:22;;;;;;;;;;;;;;;-5.98;76.56;98370.50;4997168;28;20091;-85
2022/11/18 08:50:51;;;;;;;;;;;;;;;-6.01;76.45;98376.06;5035230;28;20000;-85
2022/11/18 08:53:19;;;;;;;;;;;;;;;-6.01;76.43;98372.63;5030489;28;19929;-84
2022/11/18 08:55:45;;;;;;;;;;;;;;;-5.96;76.63;98376.44;5031112;28;20442;-85
2022/11/18 08:58:12;;;;;;;;;;;;;;;-5.97;76.43;98373.97;5039669;28;19933;-87
2022/11/18 09:00:39;;;;;;;;;;;;;;;-5.97;76.49;98376.59;5015817;28;19928;-87
2022/11/18 09:03:07;;;;;;;;;;;;;;;-5.96;76.43;98384.31;5035265;28;19935;-90
2022/11/18 09:05:33;;;;;;;;;;;;;;;-5.93;76.23;98388.41;5019229;28;19977;-83
2022/11/18 09:08:01;;;;;;;;;;;;;;;-5.91;76.08;98384.63;5037765;28;20534;-85
2022/11/18 09:10:28;;;;;;;;;;;;;;;-5.94;75.71;98389.41;5018160;28;19929;-83
2022/11/18 09:12:55;;;;;;;;;;;;;;;-5.94;75.87;98386.78;5028404;28;19937;-84
2022/11/18 09:15:43;;;;;;;;;;;;;;;-5.89;76.30;98395.00;5015733;28;19944;-84
2022/11/18 09:18:10;;;;;;;;;;;;;;;-5.86;76.28;98392.06;5009047;28;20304;-85
2022/11/18 09:20:37;;;;;;;;;;;;;;;-5.93;76.27;98383.16;5014927;28;19933;-85
2022/11/18 09:23:04;;;;;;;;;;;;;;;-5.92;75.96;98390.88;4997894;28;20384;-85
2022/11/18 09:25:31;;;;;;;;;;;;;;;-5.88;76.00;98389.56;5013981;28;19929;-85
2022/11/18 09:27:58;;;;;;;;;;;;;;;-5.91;75.91;98392.53;4996517;28;20000;-85
2022/11/18 09:30:25;;;;;;;;;;;;;;;-5.86;75.84;98389.44;4997753;28;19933;-93
2022/11/18 09:32:55;;;;;;;;;;;;;;;-5.81;75.86;98388.97;5002439;28;19930;-85
2022/11/18 09:35:24;;;;;;;;;;;;;;;-5.76;76.01;98384.91;5002932;28;19929;-87
2022/11/18 09:37:51;;;;;;;;;;;;;;;-5.75;75.76;98383.09;5000618;28;19999;-94
2022/11/18 09:40:22;;;;;;;;;;;;;;;-5.76;75.82;98398.03;4980275;28;19929;-85
2022/11/18 09:42:51;;;;;;;;;;;;;;;-5.77;75.85;98393.78;4980464;28;19929;-84
2022/11/18 09:45:21;;;;;;;;;;;;;;;-5.77;75.66;98393.78;5023895;28;19972;-84
2022/11/18 09:47:51;;;;;;;;;;;;;;;-5.84;75.49;98391.91;5000090;28;20040;-85
2022/11/18 09:50:21;;;;;;;;;;;;;;;-5.73;75.84;98389.84;5019112;28;20579;-86
2022/11/18 09:53:14;;;;;;;;;;;;;;;-5.67;75.62;98383.97;5024135;28;19929;-84
2022/11/18 09:55:41;;;;;;;;;;;;;;;-5.62;75.53;98395.81;4993411;28;19933;-81
2022/11/18 09:58:12;;;;;;;;;;;;;;;-5.59;75.25;98395.50;5013508;28;19937;-82
2022/11/18 10:00:39;;;;;;;;;;;;;;;-5.57;74.95;98399.63;5008251;28;19937;-82
2022/11/18 10:03:11;;;;;;;;;;;;;;;-5.58;75.24;98402.41;4995511;28;19937;-83
2022/11/18 10:05:47;;;;;;;;;;;;;;;-5.57;75.36;98402.25;4995638;28;19991;-86
2022/11/18 10:08:24;;;;;;;;;;;;;;;-5.55;75.43;98396.84;4994600;28;19930;-84
2022/11/18 10:10:57;;;;;;;;;;;;;;;-5.53;75.44;98400.13;5005259;28;19987;-86
2022/11/18 10:13:24;;;;;;;;;;;;;;;-5.43;75.36;98406.09;5030740;28;19929;-85
2022/11/18 10:15:52;;;;;;;;;;;;;;;-5.49;75.01;98397.03;5042199;28;19929;-85
2022/11/18 10:18:25;;;;;;;;;;;;;;;-5.52;75.22;98397.34;5030827;28;19929;-85
2022/11/18 10:21:15;;;;;;;;;;;;;;;-5.46;75.29;98406.41;5009579;28;19929;-87
2022/11/18 10:23:42;;;;;;;;;;;;;;;-5.49;75.22;98404.94;5009299;28;19970;-87
2022/11/18 10:26:09;;;;;;;;;;;;;;;-5.47;75.11;98404.75;5024644;28;19929;-84
2022/11/18 10:28:36;;;;;;;;;;;;;;;-5.49;74.95;98412.00;5000998;28;20039;-85
2022/11/18 10:31:07;;;;;;;;;;;;;;;-5.46;75.33;98404.59;4995883;28;19934;-85
2022/11/18 10:33:34;;;;;;;;;;;;;;;-5.37;75.46;98415.16;4994732;28;19961;-86
2022/11/18 10:36:08;;;;;;;;;;;;;;;-5.38;75.25;98414.34;4994045;28;19929;-85
2022/11/18 10:38:46;;;;;;;;;;;;;;;-5.46;75.11;98423.00;5011644;28;19929;-85
2022/11/18 10:41:19;;;;;;;;;;;;;;;-5.49;75.27;98422.50;5020511;28;19929;-85
2022/11/18 10:43:52;;;;;;;;;;;;;;;-5.43;75.25;98415.81;4986122;28;19976;-86
2022/11/18 10:46:26;;;;;;;;;;;;;;;-5.42;75.53;98423.50;5017685;28;19929;-86
2022/11/18 10:49:08;;;;;;;;;;;;;;;-5.41;75.14;98419.09;5018650;28;19987;-84
2022/11/18 10:51:36;;;;;;;;;;;;;;;-5.40;74.80;98416.28;5028223;28;19929;-85
2022/11/18 10:54:08;;;;;;;;;;;;;;;-5.38;74.92;98421.41;5033332;28;19929;-86
2022/11/18 10:56:44;;;;;;;;;;;;;;;-5.33;75.17;98430.47;5051725;28;19933;-85
2022/11/18 10:59:15;;;;;;;;;;;;;;;-5.30;74.98;98431.97;5036313;28;19928;-86
2022/11/18 11:01:42;;;;;;;;;;;;;;;-5.27;75.02;98429.81;4994807;28;19987;-85
2022/11/18 11:04:21;;;;;;;;;;;;;;;-5.30;74.83;98435.41;5004746;28;19940;-86
2022/11/18 11:06:48;;;;;;;;;;;;;;;-5.26;75.02;98430.69;5007106;28;20413;-85
2022/11/18 11:09:26;;;;;;;;;;;;;;;-5.27;75.37;98440.34;5031603;28;19944;-85
2022/11/18 11:11:57;;;;;;;;;;;;;;;-5.32;75.08;98437.38;5015014;28;20031;-85
2022/11/18 11:14:35;;;;;;;;;;;;;;;-5.39;75.20;98443.41;5009663;28;19933;-86
2022/11/18 11:17:08;;;;;;;;;;;;;;;-5.41;75.03;98446.22;5022845;28;19975;-85
2022/11/18 11:19:48;;;;;;;;;;;;;;;-5.42;75.05;98441.09;5019458;28;19973;-85
2022/11/18 11:22:20;;;;;;;;;;;;;;;-5.38;75.40;98445.91;5023826;28;20346;-85
2022/11/18 11:24:47;;;;;;;;;;;;;;;-5.37;75.41;98452.78;5054344;28;19934;-85
2022/11/18 11:27:20;;;;;;;;;;;;;;;-5.36;75.55;98462.34;5004834;28;20027;-85
2022/11/18 11:30:08;;;;;;;;;;;;;;;-5.37;75.76;98465.13;5033886;28;19929;-85
2022/11/18 11:32:35;;;;;;;;;;;;;;;-5.45;75.72;98466.72;5008215;28;19930;-85
2022/11/18 11:35:16;;;;;;;;;;;;;;;-5.49;75.62;98461.97;5025357;28;20447;-85
2022/11/18 11:37:43;;;;;;;;;;;;;;;-5.45;75.59;98468.53;5024091;28;20195;-84
2022/11/18 11:40:32;;;;;;;;;;;;;;;-5.43;75.54;98469.22;5028860;28;20461;-85
2022/11/18 11:43:02;;;;;;;;;;;;;;;-5.43;75.66;98463.97;4994394;28;19976;-85
2022/11/18 11:45:49;;;;;;;;;;;;;;;-5.38;75.74;98471.38;4978977;28;19936;-85
2022/11/18 11:48:34;;;;;;;;;;;;;;;-5.42;75.55;98472.66;4997924;28;20053;-85
2022/11/18 11:51:05;;;;;;;;;;;;;;;-5.52;75.68;98471.00;5020572;28;20023;-84
2022/11/18 11:53:47;;;;;;;;;;;;;;;-5.50;75.84;98476.06;5006743;28;19929;-85
2022/11/18 11:56:20;;;;;;;;;;;;;;;-5.54;75.79;98475.56;5025241;28;20129;-86
2022/11/18 11:58:49;;;;;;;;;;;;;;;-5.50;75.84;98474.25;5027541;23;19941;-86
2022/11/18 12:01:21;;;;;;;;;;;;;;;-5.44;75.68;98478.09;5010107;28;20403;-87
2022/11/18 12:03:56;;;;;;;;;;;;;;;-5.41;75.88;98477.78;4995985;28;19936;-84
2022/11/18 12:06:23;;;;;;;;;;;;;;;-5.41;75.90;98485.66;4995209;28;20384;-84
2022/11/18 12:08:59;;;;;;;;;;;;;;;-5.49;76.08;98483.81;4984056;28;20426;-86
2022/11/18 12:11:35;;;;;;;;;;;;;;;-5.52;76.26;98486.75;4985617;28;19952;-89
2022/11/18 12:14:16;;;;;;;;;;;;;;;-5.56;76.22;98490.66;4998199;28;20028;-84
2022/11/18 12:16:47;;;;;;;;;;;;;;;-5.57;76.38;98490.81;4667447;28;10000154;-84
2022/11/18 12:19:14;;;;;;;;;;;;;;;-5.57;76.70;98496.91;5002990;28;19959;-85
2022/11/18 12:21:51;;;;;;;;;;;;;;;-5.57;76.56;98506.59;5000868;28;19967;-86
2022/11/18 12:24:30;;;;;;;;;;;;;;;-5.60;76.79;98504.28;5008637;28;19990;-85
2022/11/18 12:26:58;;;;;;;;;;;;;;;-5.62;76.95;98504.44;5013665;28;19936;-84
2022/11/18 12:29:32;;;;;;;;;;;;;;;-5.67;76.81;98515.41;5007650;28;19937;-85
2022/11/18 12:32:06;;;;;;;;;;;;;;;-5.65;76.96;98512.63;4973106;28;19940;-84
2022/11/18 12:34:40;;;;;;;;;;;;;;;-5.68;77.10;98513.75;4958075;28;19954;-86
2022/11/18 12:37:36;;;;;;;;;;;;;;;-5.63;77.49;98512.47;4967772;28;19929;-84
2022/11/18 12:40:04;;;;;;;;;;;;;;;-5.69;77.21;98521.81;5000935;28;19929;-84
2022/11/18 12:45:36;;;;;;;;;;;;;;;-5.75;77.32;98533.72;5005124;28;19929;-86
2022/11/18 12:48:03;;;;;;;;;;;;;;;-5.75;77.45;98536.34;4991783;28;20421;-84
2022/11/18 12:51:05;;;;;;;;;;;;;;;-5.77;77.63;98540.97;4994632;28;19933;-84
2022/11/18 12:53:34;;;;;;;;;;;;;;;-5.78;77.94;98541.94;4990662;28;19930;-87
2022/11/18 12:56:17;;;;;;;;;;;;;;;-5.75;77.75;98539.00;4989518;28;19941;-84
2022/11/18 12:58:44;;;;;;;;;;;;;;;-5.76;77.78;98545.25;4971833;28;20024;-83
2022/11/18 13:01:12;;;;;;;;;;;;;;;-5.81;77.92;98539.59;4989204;28;19930;-83
2022/11/18 13:03:39;;;;;;;;;;;;;;;-5.84;78.02;98554.88;4959717;28;19934;-84
2022/11/18 13:06:12;;;;;;;;;;;;;;;-5.87;78.05;98561.25;4991307;28;19934;-84
2022/11/18 13:11:45;;;;;;;;;;;;;;;-5.82;78.12;98569.50;5031742;28;19929;-84
2022/11/18 13:20:23;;;;;;;;;;;;;;;-5.82;78.21;98574.78;5037808;28;19929;-85
2022/11/18 13:25:41;;;;;;;;;;;;;;;-5.83;78.65;98583.59;5014802;28;19934;-84
2022/11/18 13:28:11;;;;;;;;;;;;;;;-5.83;78.72;98583.59;5020774;28;19929;-86
2022/11/18 13:30:42;;;;;;;;;;;;;;;-5.81;78.70;98586.91;5017581;28;20521;-85
2022/11/18 13:33:09;;;;;;;;;;;;;;;-5.81;78.91;98588.72;4998423;28;20475;-84